sensor_id;sensor_type;location;lat;lon;timestamp;pressure;altitude;pressure_sealevel;temperature
68440;BMP180;55421;51.600;5.718;2022-08-25T00:01:19;227723.80;;;23.60
68440;BMP180;55421;51.600;5.718;2022-08-25T00:03:47;227686.20;;;23.50
68440;BMP180;55421;51.600;5.718;2022-08-25T00:06:15;227667.00;;;23.50
68440;BMP180;55421;51.600;5.718;2022-08-25T00:08:42;227651.41;;;23.50
68440;BMP180;55421;51.600;5.718;2022-08-25T00:11:14;227644.20;;;23.50
68440;BMP180;55421;51.600;5.718;2022-08-25T00:13:45;227645.41;;;23.50
68440;BMP180;55421;51.600;5.718;2022-08-25T00:16:15;227635.00;;;23.44
68440;BMP180;55421;51.600;5.718;2022-08-25T00:18:43;227627.41;;;23.42
68440;BMP180;55421;51.600;5.718;2022-08-25T00:21:13;227619.59;;;23.40
68440;BMP180;55421;51.600;5.718;2022-08-25T00:23:40;227580.41;;;23.34
68440;BMP180;55421;51.600;5.718;2022-08-25T00:26:08;227567.59;;;23.30
68440;BMP180;55421;51.600;5.718;2022-08-25T00:28:35;227551.59;;;23.30
68440;BMP180;55421;51.600;5.718;2022-08-25T00:31:03;227526.80;;;23.30
68440;BMP180;55421;51.600;5.718;2022-08-25T00:33:30;227506.59;;;23.20
68440;BMP180;55421;51.600;5.718;2022-08-25T00:35:58;227489.00;;;23.20
68440;BMP180;55421;51.600;5.718;2022-08-25T00:38:26;227470.20;;;23.20
68440;BMP180;55421;51.600;5.718;2022-08-25T00:40:53;227452.59;;;23.10
68440;BMP180;55421;51.600;5.718;2022-08-25T00:43:46;227433.59;;;23.10
68440;BMP180;55421;51.600;5.718;2022-08-25T00:46:18;227433.59;;;23.10
68440;BMP180;55421;51.600;5.718;2022-08-25T00:49:02;227423.00;;;23.10
68440;BMP180;55421;51.600;5.718;2022-08-25T00:51:41;227421.59;;;23.10
68440;BMP180;55421;51.600;5.718;2022-08-25T00:54:15;227404.41;;;23.00
68440;BMP180;55421;51.600;5.718;2022-08-25T00:56:43;227396.00;;;23.00
68440;BMP180;55421;51.600;5.718;2022-08-25T00:59:12;227380.80;;;23.00
68440;BMP180;55421;51.600;5.718;2022-08-25T01:01:39;227348.41;;;22.90
68440;BMP180;55421;51.600;5.718;2022-08-25T01:04:05;227311.20;;;22.90
68440;BMP180;55421;51.600;5.718;2022-08-25T01:06:36;227276.20;;;22.80
68440;BMP180;55421;51.600;5.718;2022-08-25T01:09:04;227249.20;;;22.80
68440;BMP180;55421;51.600;5.718;2022-08-25T01:11:34;227217.20;;;22.70
68440;BMP180;55421;51.600;5.718;2022-08-25T01:14:02;227204.41;;;22.70
68440;BMP180;55421;51.600;5.718;2022-08-25T01:16:34;227188.41;;;22.70
68440;BMP180;55421;51.600;5.718;2022-08-25T01:19:02;227152.41;;;22.60
68440;BMP180;55421;51.600;5.718;2022-08-25T01:21:43;227125.59;;;22.58
68440;BMP180;55421;51.600;5.718;2022-08-25T01:24:22;227097.00;;;22.50
68440;BMP180;55421;51.600;5.718;2022-08-25T01:26:51;227079.00;;;22.50
68440;BMP180;55421;51.600;5.718;2022-08-25T01:29:17;227095.41;;;22.50
68440;BMP180;55421;51.600;5.718;2022-08-25T01:31:55;227103.41;;;22.50
68440;BMP180;55421;51.600;5.718;2022-08-25T01:34:26;227126.00;;;22.56
68440;BMP180;55421;51.600;5.718;2022-08-25T01:36:55;227143.59;;;22.60
68440;BMP180;55421;51.600;5.718;2022-08-25T01:39:24;227153.20;;;22.60
68440;BMP180;55421;51.600;5.718;2022-08-25T01:44:35;227154.00;;;22.60
68440;BMP180;55421;51.600;5.718;2022-08-25T01:47:03;227149.20;;;22.60
68440;BMP180;55421;51.600;5.718;2022-08-25T01:49:31;227133.59;;;22.60
68440;BMP180;55421;51.600;5.718;2022-08-25T01:54:32;227089.00;;;22.50
68440;BMP180;55421;51.600;5.718;2022-08-25T01:56:59;227046.20;;;22.40
68440;BMP180;55421;51.600;5.718;2022-08-25T01:59:26;227024.59;;;22.40
68440;BMP180;55421;51.600;5.718;2022-08-25T02:01:53;226994.41;;;22.30
68440;BMP180;55421;51.600;5.718;2022-08-25T02:04:19;226980.41;;;22.30
68440;BMP180;55421;51.600;5.718;2022-08-25T02:06:46;226967.59;;;22.30
68440;BMP180;55421;51.600;5.718;2022-08-25T02:09:16;226958.00;;;22.24
68440;BMP180;55421;51.600;5.718;2022-08-25T02:11:45;226956.41;;;22.22
68440;BMP180;55421;51.600;5.718;2022-08-25T02:14:14;226940.80;;;22.20
68440;BMP180;55421;51.600;5.718;2022-08-25T02:16:47;226916.59;;;22.20
68440;BMP180;55421;51.600;5.718;2022-08-25T02:19:15;226892.59;;;22.10
68440;BMP180;55421;51.600;5.718;2022-08-25T02:21:42;226872.20;;;22.10
68440;BMP180;55421;51.600;5.718;2022-08-25T02:24:11;226838.20;;;22.00
68440;BMP180;55421;51.600;5.718;2022-08-25T02:26:37;226809.80;;;22.00
68440;BMP180;55421;51.600;5.718;2022-08-25T02:29:06;226777.59;;;21.90
68440;BMP180;55421;51.600;5.718;2022-08-25T02:31:34;226755.59;;;21.90
68440;BMP180;55421;51.600;5.718;2022-08-25T02:34:02;226732.20;;;21.90
68440;BMP180;55421;51.600;5.718;2022-08-25T02:36:30;226715.00;;;21.80
68440;BMP180;55421;51.600;5.718;2022-08-25T02:38:58;226691.00;;;21.80
68440;BMP180;55421;51.600;5.718;2022-08-25T02:41:26;226670.20;;;21.72
68440;BMP180;55421;51.600;5.718;2022-08-25T02:43:53;226645.80;;;21.70
68440;BMP180;55421;51.600;5.718;2022-08-25T02:46:21;226630.00;;;21.70
68440;BMP180;55421;51.600;5.718;2022-08-25T02:48:48;226611.20;;;21.60
68440;BMP180;55421;51.600;5.718;2022-08-25T02:51:16;226586.80;;;21.60
68440;BMP180;55421;51.600;5.718;2022-08-25T02:53:43;226557.20;;;21.50
68440;BMP180;55421;51.600;5.718;2022-08-25T02:56:13;226517.59;;;21.50
68440;BMP180;55421;51.600;5.718;2022-08-25T02:58:40;226475.41;;;21.40
68440;BMP180;55421;51.600;5.718;2022-08-25T03:01:08;226443.80;;;21.36
68440;BMP180;55421;51.600;5.718;2022-08-25T03:03:39;226415.59;;;21.30
68440;BMP180;55421;51.600;5.718;2022-08-25T03:06:08;226403.20;;;21.30
68440;BMP180;55421;51.600;5.718;2022-08-25T03:08:36;226395.20;;;21.28
68440;BMP180;55421;51.600;5.718;2022-08-25T03:11:04;226388.41;;;21.22
68440;BMP180;55421;51.600;5.718;2022-08-25T03:13:31;226378.41;;;21.20
68440;BMP180;55421;51.600;5.718;2022-08-25T03:16:00;226368.00;;;21.20
68440;BMP180;55421;51.600;5.718;2022-08-25T03:18:27;226353.59;;;21.20
68440;BMP180;55421;51.600;5.718;2022-08-25T03:20:53;226341.59;;;21.20
68440;BMP180;55421;51.600;5.718;2022-08-25T03:23:20;226326.80;;;21.10
68440;BMP180;55421;51.600;5.718;2022-08-25T03:25:47;226317.59;;;21.10
68440;BMP180;55421;51.600;5.718;2022-08-25T03:28:32;226303.59;;;21.10
68440;BMP180;55421;51.600;5.718;2022-08-25T03:31:00;226287.80;;;21.08
68440;BMP180;55421;51.600;5.718;2022-08-25T03:33:29;226283.00;;;21.02
68440;BMP180;55421;51.600;5.718;2022-08-25T03:35:57;226276.59;;;21.00
68440;BMP180;55421;51.600;5.718;2022-08-25T03:38:27;226273.41;;;21.00
68440;BMP180;55421;51.600;5.718;2022-08-25T03:40:53;226276.59;;;21.00
68440;BMP180;55421;51.600;5.718;2022-08-25T03:43:20;226287.80;;;21.06
68440;BMP180;55421;51.600;5.718;2022-08-25T03:45:47;226302.00;;;21.10
68440;BMP180;55421;51.600;5.718;2022-08-25T03:48:15;226306.80;;;21.10
68440;BMP180;55421;51.600;5.718;2022-08-25T03:50:46;226309.80;;;21.10
68440;BMP180;55421;51.600;5.718;2022-08-25T03:53:14;226302.00;;;21.10
68440;BMP180;55421;51.600;5.718;2022-08-25T03:55:40;226297.41;;;21.10
68440;BMP180;55421;51.600;5.718;2022-08-25T03:58:07;226286.20;;;21.08
68440;BMP180;55421;51.600;5.718;2022-08-25T04:00:34;226289.41;;;21.10
68440;BMP180;55421;51.600;5.718;2022-08-25T04:03:01;226289.41;;;21.10
68440;BMP180;55421;51.600;5.718;2022-08-25T04:05:28;226295.80;;;21.10
68440;BMP180;55421;51.600;5.718;2022-08-25T04:07:54;226286.20;;;21.06
68440;BMP180;55421;51.600;5.718;2022-08-25T04:10:21;226273.41;;;21.00
68440;BMP180;55421;51.600;5.718;2022-08-25T04:12:47;226271.80;;;21.00
68440;BMP180;55421;51.600;5.718;2022-08-25T04:15:14;226265.41;;;21.00
68440;BMP180;55421;51.600;5.718;2022-08-25T04:17:41;226257.00;;;21.00
68440;BMP180;55421;51.600;5.718;2022-08-25T04:20:10;226241.80;;;21.00
68440;BMP180;55421;51.600;5.718;2022-08-25T04:22:37;226226.59;;;21.00
68440;BMP180;55421;51.600;5.718;2022-08-25T04:25:05;226222.41;;;20.98
68440;BMP180;55421;51.600;5.718;2022-08-25T04:27:32;226209.59;;;20.90
68440;BMP180;55421;51.600;5.718;2022-08-25T04:29:59;226200.41;;;20.90
68440;BMP180;55421;51.600;5.718;2022-08-25T04:32:25;226182.00;;;20.90
68440;BMP180;55421;51.600;5.718;2022-08-25T04:34:53;226158.80;;;20.82
68440;BMP180;55421;51.600;5.718;2022-08-25T04:37:19;226140.20;;;20.80
68440;BMP180;55421;51.600;5.718;2022-08-25T04:39:46;226120.20;;;20.80
68440;BMP180;55421;51.600;5.718;2022-08-25T04:42:12;226112.20;;;20.76
68440;BMP180;55421;51.600;5.718;2022-08-25T04:44:39;226096.20;;;20.70
68440;BMP180;55421;51.600;5.718;2022-08-25T04:47:05;226088.59;;;20.70
68440;BMP180;55421;51.600;5.718;2022-08-25T04:49:32;226072.20;;;20.70
68440;BMP180;55421;51.600;5.718;2022-08-25T04:51:58;226063.00;;;20.70
68440;BMP180;55421;51.600;5.718;2022-08-25T04:54:25;226058.20;;;20.68
68440;BMP180;55421;51.600;5.718;2022-08-25T04:56:53;226064.59;;;20.70
68440;BMP180;55421;51.600;5.718;2022-08-25T04:59:19;226071.00;;;20.70
68440;BMP180;55421;51.600;5.718;2022-08-25T05:01:46;226089.00;;;20.70
68440;BMP180;55421;51.600;5.718;2022-08-25T05:04:15;226109.00;;;20.80
68440;BMP180;55421;51.600;5.718;2022-08-25T05:06:42;226133.41;;;20.80
68440;BMP180;55421;51.600;5.718;2022-08-25T05:09:09;226157.20;;;20.80
68440;BMP180;55421;51.600;5.718;2022-08-25T05:11:37;226192.80;;;20.90
68440;BMP180;55421;51.600;5.718;2022-08-25T05:14:04;226225.00;;;20.92
68440;BMP180;55421;51.600;5.718;2022-08-25T05:16:30;226257.00;;;21.00
68440;BMP180;55421;51.600;5.718;2022-08-25T05:18:57;226292.59;;;21.10
68440;BMP180;55421;51.600;5.718;2022-08-25T05:21:26;226319.59;;;21.10
68440;BMP180;55421;51.600;5.718;2022-08-25T05:23:56;226350.41;;;21.20
68440;BMP180;55421;51.600;5.718;2022-08-25T05:26:26;226382.00;;;21.20
68440;BMP180;55421;51.600;5.718;2022-08-25T05:28:54;226414.41;;;21.30
68440;BMP180;55421;51.600;5.718;2022-08-25T05:31:23;226436.80;;;21.32
68440;BMP180;55421;51.600;5.718;2022-08-25T05:33:52;226470.59;;;21.40
68440;BMP180;55421;51.600;5.718;2022-08-25T05:36:20;226516.41;;;21.50
68440;BMP180;55421;51.600;5.718;2022-08-25T05:38:48;226561.20;;;21.50
68440;BMP180;55421;51.600;5.718;2022-08-25T05:41:24;226604.41;;;21.60
68440;BMP180;55421;51.600;5.718;2022-08-25T05:43:50;226653.00;;;21.70
68440;BMP180;55421;51.600;5.718;2022-08-25T05:46:18;226687.80;;;21.80
68440;BMP180;55421;51.600;5.718;2022-08-25T05:48:47;226732.20;;;21.86
68440;BMP180;55421;51.600;5.718;2022-08-25T05:51:14;226788.41;;;21.96
68440;BMP180;55421;51.600;5.718;2022-08-25T05:53:44;226833.41;;;22.00
68440;BMP180;55421;51.600;5.718;2022-08-25T05:56:11;226885.80;;;22.10
68440;BMP180;55421;51.600;5.718;2022-08-25T05:58:41;226933.41;;;22.20
68440;BMP180;55421;51.600;5.718;2022-08-25T06:01:08;226959.59;;;22.30
68440;BMP180;55421;51.600;5.718;2022-08-25T06:03:54;227005.80;;;22.30
68440;BMP180;55421;51.600;5.718;2022-08-25T06:06:22;227035.00;;;22.40
68440;BMP180;55421;51.600;5.718;2022-08-25T06:08:49;227077.41;;;22.50
68440;BMP180;55421;51.600;5.718;2022-08-25T06:11:17;227112.59;;;22.50
68440;BMP180;55421;51.600;5.718;2022-08-25T06:13:44;227154.41;;;22.60
68440;BMP180;55421;51.600;5.718;2022-08-25T06:16:11;227193.20;;;22.70
68440;BMP180;55421;51.600;5.718;2022-08-25T06:18:38;227226.80;;;22.70
68440;BMP180;55421;51.600;5.718;2022-08-25T06:21:14;227267.80;;;22.80
68440;BMP180;55421;51.600;5.718;2022-08-25T06:23:41;227308.41;;;22.90
68440;BMP180;55421;51.600;5.718;2022-08-25T06:26:12;227353.20;;;22.92
68440;BMP180;55421;51.600;5.718;2022-08-25T06:28:39;227393.20;;;23.00
68440;BMP180;55421;51.600;5.718;2022-08-25T06:31:05;227423.59;;;23.10
68440;BMP180;55421;51.600;5.718;2022-08-25T06:33:32;227468.59;;;23.18
68440;BMP180;55421;51.600;5.718;2022-08-25T06:35:59;227507.00;;;23.20
68440;BMP180;55421;51.600;5.718;2022-08-25T06:38:26;227554.80;;;23.30
68440;BMP180;55421;51.600;5.718;2022-08-25T06:40:52;227593.20;;;23.40
68440;BMP180;55421;51.600;5.718;2022-08-25T06:43:20;227633.41;;;23.48
68440;BMP180;55421;51.600;5.718;2022-08-25T06:45:47;227683.00;;;23.52
68440;BMP180;55421;51.600;5.718;2022-08-25T06:48:14;227745.00;;;23.60
68440;BMP180;55421;51.600;5.718;2022-08-25T06:50:42;227795.59;;;23.70
68440;BMP180;55421;51.600;5.718;2022-08-25T06:53:09;227844.59;;;23.80
68440;BMP180;55421;51.600;5.718;2022-08-25T06:55:35;227892.59;;;23.90
68440;BMP180;55421;51.600;5.718;2022-08-25T06:58:03;227943.59;;;24.00
68440;BMP180;55421;51.600;5.718;2022-08-25T07:00:30;227996.80;;;24.10
68440;BMP180;55421;51.600;5.718;2022-08-25T07:02:57;228036.80;;;24.20
68440;BMP180;55421;51.600;5.718;2022-08-25T07:05:28;228077.00;;;24.20
68440;BMP180;55421;51.600;5.718;2022-08-25T07:07:54;228136.41;;;24.30
68440;BMP180;55421;51.600;5.718;2022-08-25T07:10:21;228178.00;;;24.40
68440;BMP180;55421;51.600;5.718;2022-08-25T07:12:48;228230.41;;;24.50
68440;BMP180;55421;51.600;5.718;2022-08-25T07:15:14;228271.00;;;24.60
68440;BMP180;55421;51.600;5.718;2022-08-25T07:17:41;228316.00;;;24.60
68440;BMP180;55421;51.600;5.718;2022-08-25T07:20:08;228352.41;;;24.70
68440;BMP180;55421;51.600;5.718;2022-08-25T07:22:34;228398.00;;;24.80
68440;BMP180;55421;51.600;5.718;2022-08-25T07:25:00;228444.20;;;24.90
68440;BMP180;55421;51.600;5.718;2022-08-25T07:27:27;228501.80;;;25.00
68440;BMP180;55421;51.600;5.718;2022-08-25T07:29:56;228560.00;;;25.10
68440;BMP180;55421;51.600;5.718;2022-08-25T07:32:22;228611.00;;;25.20
68440;BMP180;55421;51.600;5.718;2022-08-25T07:34:49;228643.00;;;25.20
68440;BMP180;55421;51.600;5.718;2022-08-25T07:37:38;228680.20;;;25.30
68440;BMP180;55421;51.600;5.718;2022-08-25T07:40:05;228721.41;;;25.40
68440;BMP180;55421;51.600;5.718;2022-08-25T07:42:32;228750.80;;;25.40
68440;BMP180;55421;51.600;5.718;2022-08-25T07:44:59;228798.41;;;25.50
68440;BMP180;55421;51.600;5.718;2022-08-25T07:47:25;228849.80;;;25.60
68440;BMP180;55421;51.600;5.718;2022-08-25T07:49:52;228901.00;;;25.70
68440;BMP180;55421;51.600;5.718;2022-08-25T07:52:18;228955.59;;;25.80
68440;BMP180;55421;51.600;5.718;2022-08-25T07:54:45;228997.20;;;25.90
68440;BMP180;55421;51.600;5.718;2022-08-25T07:57:11;229054.80;;;25.94
68440;BMP180;55421;51.600;5.718;2022-08-25T07:59:40;229095.00;;;26.00
68440;BMP180;55421;51.600;5.718;2022-08-25T08:02:11;229145.20;;;26.10
68440;BMP180;55421;51.600;5.718;2022-08-25T08:04:37;229202.41;;;26.20
68440;BMP180;55421;51.600;5.718;2022-08-25T08:07:04;229255.00;;;26.30
68440;BMP180;55421;51.600;5.718;2022-08-25T08:09:31;229302.59;;;26.40
68440;BMP180;55421;51.600;5.718;2022-08-25T08:11:58;229356.80;;;26.50
68440;BMP180;55421;51.600;5.718;2022-08-25T08:14:25;229400.00;;;26.58
68440;BMP180;55421;51.600;5.718;2022-08-25T08:16:51;229433.59;;;26.60
68440;BMP180;55421;51.600;5.718;2022-08-25T08:19:19;229461.41;;;26.70
68440;BMP180;55421;51.600;5.718;2022-08-25T08:21:45;229472.59;;;26.70
68440;BMP180;55421;51.600;5.718;2022-08-25T08:24:12;229466.20;;;26.70
68440;BMP180;55421;51.600;5.718;2022-08-25T08:26:38;229474.20;;;26.70
68440;BMP180;55421;51.600;5.718;2022-08-25T08:29:05;229487.00;;;26.70
68440;BMP180;55421;51.600;5.718;2022-08-25T08:31:31;229504.59;;;26.78
68440;BMP180;55421;51.600;5.718;2022-08-25T08:33:58;229538.20;;;26.80
68440;BMP180;55421;51.600;5.718;2022-08-25T08:36:24;229586.00;;;26.90
68440;BMP180;55421;51.600;5.718;2022-08-25T08:38:51;229629.41;;;27.00
68440;BMP180;55421;51.600;5.718;2022-08-25T08:47:16;229834.00;;;27.30
68440;BMP180;55421;51.600;5.718;2022-08-25T08:53:09;229964.41;;;27.60
68440;BMP180;55421;51.600;5.718;2022-08-25T08:55:43;230046.00;;;27.70
68440;BMP180;55421;51.600;5.718;2022-08-25T08:58:26;230110.59;;;27.82
68440;BMP180;55421;51.600;5.718;2022-08-25T09:00:56;230180.80;;;27.90
68440;BMP180;55421;51.600;5.718;2022-08-25T09:03:41;230235.20;;;28.02
68440;BMP180;55421;51.600;5.718;2022-08-25T09:08:48;230337.00;;;28.20
68440;BMP180;55421;51.600;5.718;2022-08-25T09:17:53;230496.20;;;28.50
68440;BMP180;55421;51.600;5.718;2022-08-25T09:23:45;230603.20;;;28.70
68440;BMP180;55421;51.600;5.718;2022-08-25T09:26:32;230669.80;;;28.80
68440;BMP180;55421;51.600;5.718;2022-08-25T09:29:14;230739.00;;;28.94
68440;BMP180;55421;51.600;5.718;2022-08-25T09:31:47;230799.41;;;29.04
68440;BMP180;55421;51.600;5.718;2022-08-25T09:34:23;230859.59;;;29.20
68440;BMP180;55421;51.600;5.718;2022-08-25T09:36:53;230895.20;;;29.20
68440;BMP180;55421;51.600;5.718;2022-08-25T09:39:21;230913.00;;;29.30
68440;BMP180;55421;51.600;5.718;2022-08-25T09:41:59;230938.59;;;29.30
68440;BMP180;55421;51.600;5.718;2022-08-25T09:44:44;230974.80;;;29.36
68440;BMP180;55421;51.600;5.718;2022-08-25T09:49:57;231051.59;;;29.50
68440;BMP180;55421;51.600;5.718;2022-08-25T09:54:56;231139.80;;;29.68
68440;BMP180;55421;51.600;5.718;2022-08-25T10:03:11;231252.41;;;29.84
68440;BMP180;55421;51.600;5.718;2022-08-25T10:06:02;231306.80;;;29.96
68440;BMP180;55421;51.600;5.718;2022-08-25T10:08:37;231365.00;;;30.02
68440;BMP180;55421;51.600;5.718;2022-08-25T10:11:09;231413.00;;;30.10
68440;BMP180;55421;51.600;5.718;2022-08-25T10:13:46;231442.41;;;30.20
68440;BMP180;55421;51.600;5.718;2022-08-25T10:16:29;231457.20;;;30.20
68440;BMP180;55421;51.600;5.718;2022-08-25T10:19:09;231509.80;;;30.30
68440;BMP180;55421;51.600;5.718;2022-08-25T10:21:40;231558.20;;;30.40
68440;BMP180;55421;51.600;5.718;2022-08-25T10:24:11;231612.59;;;30.50
68440;BMP180;55421;51.600;5.718;2022-08-25T10:26:51;231652.80;;;30.60
68440;BMP180;55421;51.600;5.718;2022-08-25T10:35:26;231842.00;;;30.90
68440;BMP180;55421;51.600;5.718;2022-08-25T10:38:37;231868.80;;;30.92
68440;BMP180;55421;51.600;5.718;2022-08-25T10:41:26;231877.20;;;30.98
68440;BMP180;55421;51.600;5.718;2022-08-25T10:44:07;231938.80;;;31.08
68440;BMP180;55421;51.600;5.718;2022-08-25T10:50:03;232074.00;;;31.30
68440;BMP180;55421;51.600;5.718;2022-08-25T10:52:48;232099.59;;;31.36
68440;BMP180;55421;51.600;5.718;2022-08-25T10:55:25;232149.20;;;31.40
68440;BMP180;55421;51.600;5.718;2022-08-25T10:58:25;232204.20;;;31.50
68440;BMP180;55421;51.600;5.718;2022-08-25T11:01:25;232231.59;;;31.60
68440;BMP180;55421;51.600;5.718;2022-08-25T11:03:59;232264.00;;;31.60
68440;BMP180;55421;51.600;5.718;2022-08-25T11:06:39;232292.80;;;31.70
68440;BMP180;55421;51.600;5.718;2022-08-25T11:09:12;232339.59;;;31.80
68440;BMP180;55421;51.600;5.718;2022-08-25T11:12:03;232380.20;;;31.84
68440;BMP180;55421;51.600;5.718;2022-08-25T11:14:36;232411.41;;;31.90
68440;BMP180;55421;51.600;5.718;2022-08-25T11:17:13;232454.80;;;32.00
68440;BMP180;55421;51.600;5.718;2022-08-25T11:19:48;232479.59;;;32.00
68440;BMP180;55421;51.600;5.718;2022-08-25T11:22:40;232483.20;;;32.00
68440;BMP180;55421;51.600;5.718;2022-08-25T11:25:18;232472.41;;;32.00
68440;BMP180;55421;51.600;5.718;2022-08-25T11:27:57;232444.59;;;32.00
68440;BMP180;55421;51.600;5.718;2022-08-25T11:30:25;232417.41;;;31.90
68440;BMP180;55421;51.600;5.718;2022-08-25T11:32:53;232409.80;;;31.90
68440;BMP180;55421;51.600;5.718;2022-08-25T11:41:15;232411.00;;;31.90
68440;BMP180;55421;51.600;5.718;2022-08-25T11:44:26;232390.20;;;31.90
68440;BMP180;55421;51.600;5.718;2022-08-25T11:50:01;232347.59;;;31.80
68440;BMP180;55421;51.600;5.718;2022-08-25T11:55:28;232320.41;;;31.70
68440;BMP180;55421;51.600;5.718;2022-08-25T11:58:34;232251.20;;;31.60
68440;BMP180;55421;51.600;5.718;2022-08-25T12:01:07;232205.80;;;31.50
68440;BMP180;55421;51.600;5.718;2022-08-25T12:06:30;232159.20;;;31.50
68440;BMP180;55421;51.600;5.718;2022-08-25T12:27:42;232373.80;;;31.82
68440;BMP180;55421;51.600;5.718;2022-08-25T12:30:31;232392.59;;;31.90
68440;BMP180;55421;51.600;5.718;2022-08-25T12:36:08;232489.59;;;32.00
68440;BMP180;55421;51.600;5.718;2022-08-25T12:38:48;232518.80;;;32.10
68440;BMP180;55421;51.600;5.718;2022-08-25T12:41:22;232549.20;;;32.16
68440;BMP180;55421;51.600;5.718;2022-08-25T12:43:53;232571.00;;;32.20
68440;BMP180;55421;51.600;5.718;2022-08-25T12:52:14;232587.00;;;32.20
68440;BMP180;55421;51.600;5.718;2022-08-25T12:54:58;232612.20;;;32.28
68440;BMP180;55421;51.600;5.718;2022-08-25T12:57:57;232630.59;;;32.30
68440;BMP180;55421;51.600;5.718;2022-08-25T13:00:50;232660.20;;;32.30
68440;BMP180;55421;51.600;5.718;2022-08-25T13:03:52;232660.20;;;32.30
68440;BMP180;55421;51.600;5.718;2022-08-25T13:10:02;232642.20;;;32.30
68440;BMP180;55421;51.600;5.718;2022-08-25T13:12:39;232618.59;;;32.30
68440;BMP180;55421;51.600;5.718;2022-08-25T13:15:38;232577.41;;;32.20
68440;BMP180;55421;51.600;5.718;2022-08-25T13:20:54;232547.59;;;32.14
68440;BMP180;55421;51.600;5.718;2022-08-25T13:23:27;232545.80;;;32.12
68440;BMP180;55421;51.600;5.718;2022-08-25T13:25:54;232533.59;;;32.10
68440;BMP180;55421;51.600;5.718;2022-08-25T13:28:34;232530.00;;;32.10
68440;BMP180;55421;51.600;5.718;2022-08-25T13:31:15;232538.80;;;32.10
68440;BMP180;55421;51.600;5.718;2022-08-25T13:33:52;232532.00;;;32.10
68440;BMP180;55421;51.600;5.718;2022-08-25T13:36:25;232527.20;;;32.10
68440;BMP180;55421;51.600;5.718;2022-08-25T13:39:19;232506.00;;;32.10
68440;BMP180;55421;51.600;5.718;2022-08-25T13:41:51;232496.00;;;32.02
68440;BMP180;55421;51.600;5.718;2022-08-25T13:44:21;232492.80;;;32.00
68440;BMP180;55421;51.600;5.718;2022-08-25T13:47:14;232491.20;;;32.00
68440;BMP180;55421;51.600;5.718;2022-08-25T13:49:46;232486.41;;;32.00
68440;BMP180;55421;51.600;5.718;2022-08-25T13:52:30;232481.59;;;32.00
68440;BMP180;55421;51.600;5.718;2022-08-25T13:54:59;232496.00;;;32.02
68440;BMP180;55421;51.600;5.718;2022-08-25T13:57:29;232499.20;;;32.04
68440;BMP180;55421;51.600;5.718;2022-08-25T14:00:02;232502.41;;;32.10
68440;BMP180;55421;51.600;5.718;2022-08-25T14:02:43;232468.80;;;32.00
68440;BMP180;55421;51.600;5.718;2022-08-25T14:05:13;232433.41;;;31.94
68440;BMP180;55421;51.600;5.718;2022-08-25T14:07:40;232413.80;;;31.90
68440;BMP180;55421;51.600;5.718;2022-08-25T14:10:43;232404.59;;;31.90
68440;BMP180;55421;51.600;5.718;2022-08-25T14:13:27;232390.20;;;31.90
68440;BMP180;55421;51.600;5.718;2022-08-25T14:15:54;232360.20;;;31.80
68440;BMP180;55421;51.600;5.718;2022-08-25T14:18:31;232339.59;;;31.80
68440;BMP180;55421;51.600;5.718;2022-08-25T14:21:00;232338.00;;;31.80
68440;BMP180;55421;51.600;5.718;2022-08-25T14:23:29;232349.20;;;31.80
68440;BMP180;55421;51.600;5.718;2022-08-25T14:25:57;232366.41;;;31.80
68440;BMP180;55421;51.600;5.718;2022-08-25T14:28:27;232365.00;;;31.80
68440;BMP180;55421;51.600;5.718;2022-08-25T14:31:05;232370.59;;;31.80
68440;BMP180;55421;51.600;5.718;2022-08-25T14:33:41;232370.59;;;31.80
68440;BMP180;55421;51.600;5.718;2022-08-25T14:36:09;232380.20;;;31.80
68440;BMP180;55421;51.600;5.718;2022-08-25T14:38:35;232387.00;;;31.86
68440;BMP180;55421;51.600;5.718;2022-08-25T14:41:05;232373.80;;;31.80
68440;BMP180;55421;51.600;5.718;2022-08-25T14:43:33;232355.59;;;31.80
68440;BMP180;55421;51.600;5.718;2022-08-25T14:46:07;232346.00;;;31.80
68440;BMP180;55421;51.600;5.718;2022-08-25T14:48:41;232347.59;;;31.80
68440;BMP180;55421;51.600;5.718;2022-08-25T14:51:11;232357.20;;;31.80
68440;BMP180;55421;51.600;5.718;2022-08-25T14:53:40;232360.20;;;31.80
68440;BMP180;55421;51.600;5.718;2022-08-25T14:56:07;232366.20;;;31.80
68440;BMP180;55421;51.600;5.718;2022-08-25T14:58:34;232363.41;;;31.80
68440;BMP180;55421;51.600;5.718;2022-08-25T15:01:01;232355.59;;;31.80
68440;BMP180;55421;51.600;5.718;2022-08-25T15:03:36;232358.59;;;31.80
68440;BMP180;55421;51.600;5.718;2022-08-25T15:06:04;232342.80;;;31.80
68440;BMP180;55421;51.600;5.718;2022-08-25T15:08:31;232318.80;;;31.72
68440;BMP180;55421;51.600;5.718;2022-08-25T15:11:16;232314.41;;;31.70
68440;BMP180;55421;51.600;5.718;2022-08-25T15:13:42;232307.59;;;31.70
68440;BMP180;55421;51.600;5.718;2022-08-25T15:16:40;232305.59;;;31.70
68440;BMP180;55421;51.600;5.718;2022-08-25T15:19:10;232292.80;;;31.70
68440;BMP180;55421;51.600;5.718;2022-08-25T15:21:40;232291.20;;;31.70
68440;BMP180;55421;51.600;5.718;2022-08-25T15:24:09;232289.59;;;31.70
68440;BMP180;55421;51.600;5.718;2022-08-25T15:26:58;232289.59;;;31.70
68440;BMP180;55421;51.600;5.718;2022-08-25T15:29:28;232281.59;;;31.70
68440;BMP180;55421;51.600;5.718;2022-08-25T15:31:57;232276.80;;;31.66
68440;BMP180;55421;51.600;5.718;2022-08-25T15:34:25;232268.80;;;31.62
68440;BMP180;55421;51.600;5.718;2022-08-25T15:36:51;232249.59;;;31.60
68440;BMP180;55421;51.600;5.718;2022-08-25T15:39:18;232244.80;;;31.60
68440;BMP180;55421;51.600;5.718;2022-08-25T15:41:46;232242.80;;;31.60
68440;BMP180;55421;51.600;5.718;2022-08-25T15:44:18;232242.80;;;31.60
68440;BMP180;55421;51.600;5.718;2022-08-25T15:46:44;232246.00;;;31.60
68440;BMP180;55421;51.600;5.718;2022-08-25T15:49:11;232237.20;;;31.60
68440;BMP180;55421;51.600;5.718;2022-08-25T15:51:38;232240.00;;;31.60
68440;BMP180;55421;51.600;5.718;2022-08-25T15:54:04;232230.41;;;31.60
68440;BMP180;55421;51.600;5.718;2022-08-25T15:56:31;232228.00;;;31.60